createdAt,value
2019-01-13T17:35:52.134Z,69.58
2019-01-13T17:37:00.187Z,69.55
2019-01-13T17:38:07.719Z,69.55
2019-01-13T17:39:15.509Z,69.49
2019-01-13T17:40:25.547Z,69.52
2019-01-13T17:41:33.516Z,69.54
2019-01-13T17:42:41.800Z,69.52
2019-01-13T17:43:49.463Z,69.50
2019-01-13T17:44:57.021Z,69.48
2019-01-13T17:46:04.916Z,69.51
2019-01-13T17:47:12.866Z,69.53
2019-01-13T17:48:20.490Z,69.54
2019-01-13T17:49:28.432Z,69.51
2019-01-13T17:50:36.381Z,69.51
2019-01-13T17:51:44.020Z,69.50
2019-01-13T17:52:52.167Z,69.51
2019-01-13T17:53:59.827Z,69.54
2019-01-13T17:55:13.816Z,69.58
2019-01-13T17:56:22.591Z,69.58
2019-01-13T17:57:30.662Z,69.50
2019-01-13T17:58:38.427Z,69.54
2019-01-13T17:59:46.506Z,69.60
2019-01-13T18:00:56.745Z,69.64
2019-01-13T18:02:05.017Z,69.58
2019-01-13T18:03:17.348Z,69.57
2019-01-13T18:04:25.015Z,69.56
2019-01-13T18:05:33.902Z,69.54
2019-01-13T18:06:41.697Z,69.57
2019-01-13T18:07:49.568Z,69.58
2019-01-13T18:08:57.264Z,69.58
2019-01-13T18:10:07.134Z,69.58
2019-01-13T18:11:14.645Z,69.54
2019-01-13T18:12:22.347Z,69.56
2019-01-13T18:13:30.159Z,69.56
2019-01-13T18:14:37.978Z,69.58
2019-01-13T18:15:45.817Z,69.59
2019-01-13T18:16:53.563Z,69.52
2019-01-13T18:18:01.322Z,69.47
2019-01-13T18:19:09.425Z,69.42
2019-01-13T18:20:20.913Z,69.46
2019-01-13T18:21:28.414Z,69.39
2019-01-13T18:22:36.368Z,69.32
2019-01-13T18:23:44.161Z,69.26
2019-01-13T18:24:52.073Z,69.23
2019-01-13T18:26:00.243Z,69.15
2019-01-13T18:27:08.130Z,69.03
2019-01-13T18:28:15.852Z,68.92
2019-01-13T18:29:23.600Z,68.88
2019-01-13T18:30:31.180Z,68.67
2019-01-13T18:31:39.179Z,68.65
2019-01-13T18:32:46.670Z,68.48
2019-01-13T18:33:54.472Z,68.30
2019-01-13T18:35:02.096Z,68.25
2019-01-13T18:36:12.098Z,68.10
2019-01-13T18:37:19.910Z,68.08
2019-01-13T18:38:27.686Z,68.02
2019-01-13T18:39:35.329Z,67.91
2019-01-13T18:40:43.102Z,67.84
2019-01-13T18:41:51.139Z,67.77
2019-01-13T18:42:58.699Z,67.74
2019-01-13T18:44:10.278Z,67.64
2019-01-13T18:45:18.007Z,67.57
2019-01-13T18:46:25.679Z,67.48
2019-01-13T18:47:33.237Z,67.43
2019-01-13T18:48:41.004Z,67.47
2019-01-13T18:49:48.697Z,67.46
2019-01-13T18:50:56.439Z,67.47
2019-01-13T18:52:04.201Z,67.45
2019-01-13T18:53:14.809Z,67.51
2019-01-13T18:54:22.570Z,67.56
2019-01-13T18:55:30.760Z,67.61
2019-01-13T18:56:38.539Z,67.71
2019-01-13T18:57:46.192Z,67.71
2019-01-13T18:58:53.912Z,67.80
2019-01-13T19:00:01.307Z,67.94
2019-01-13T19:01:09.185Z,68.03
2019-01-13T19:02:17.293Z,68.18
2019-01-13T19:03:24.933Z,68.25
2019-01-13T19:04:33.082Z,68.37
2019-01-13T19:05:40.888Z,68.44
2019-01-13T19:06:48.410Z,68.56
2019-01-13T19:07:56.028Z,68.63
2019-01-13T19:09:05.345Z,68.69
2019-01-13T19:10:21.622Z,68.77
2019-01-13T19:11:27.552Z,68.83
2019-01-13T19:12:35.017Z,68.90
2019-01-13T19:14:05.745Z,68.94
2019-01-13T19:15:13.427Z,69.06
2019-01-13T19:16:22.948Z,69.17
2019-01-13T19:17:30.443Z,69.25
2019-01-13T19:18:37.882Z,69.34
2019-01-13T19:19:46.050Z,69.43
2019-01-13T19:20:53.662Z,69.60
2019-01-13T19:22:01.211Z,69.75
2019-01-13T19:23:09.123Z,69.93
2019-01-13T19:24:16.892Z,70.03
2019-01-13T19:25:24.865Z,70.08
2019-01-13T19:26:32.571Z,70.12
2019-01-13T19:27:40.395Z,70.23
2019-01-13T19:28:48.233Z,70.37
2019-01-13T19:29:56.056Z,70.42
2019-01-13T19:31:03.689Z,70.53
2019-01-13T19:32:12.153Z,70.64
2019-01-13T19:33:20.002Z,70.79
2019-01-13T19:34:27.857Z,71.01
2019-01-13T19:35:35.738Z,71.11
2019-01-13T19:36:43.626Z,71.27
2019-01-13T19:37:51.153Z,71.31
2019-01-13T19:38:59.105Z,71.36
2019-01-13T19:40:17.009Z,71.37
2019-01-13T19:41:24.800Z,71.38
2019-01-13T19:42:32.575Z,71.37
2019-01-13T19:43:40.443Z,71.36
2019-01-13T19:44:48.484Z,71.34
2019-01-13T19:45:56.930Z,71.32
2019-01-13T19:47:04.742Z,71.34
2019-01-13T19:48:12.424Z,71.29
2019-01-13T19:49:20.017Z,71.26
2019-01-13T19:50:28.021Z,71.25
2019-01-13T19:51:36.194Z,71.27
2019-01-13T19:52:43.735Z,71.26
2019-01-13T19:53:51.994Z,71.18
2019-01-13T19:54:59.706Z,71.20
2019-01-13T19:56:07.278Z,71.17
2019-01-13T19:57:15.421Z,71.38
2019-01-13T19:58:23.380Z,71.07
2019-01-13T19:59:31.494Z,71.00
2019-01-13T20:00:39.015Z,70.88
2019-01-13T20:01:46.730Z,70.81
2019-01-13T20:02:56.332Z,70.82
2019-01-13T20:04:04.294Z,70.78
2019-01-13T20:05:12.029Z,70.73
2019-01-13T20:06:19.906Z,70.70
2019-01-13T20:07:27.525Z,70.67
2019-01-13T20:08:34.948Z,70.63
2019-01-13T20:09:42.633Z,70.59
2019-01-13T20:10:50.647Z,70.58
2019-01-13T20:11:58.450Z,70.52
2019-01-13T20:13:06.140Z,70.44
2019-01-13T20:14:14.130Z,70.37
2019-01-13T20:15:23.061Z,70.37
2019-01-13T20:16:31.005Z,70.36
2019-01-13T20:17:38.612Z,70.31
2019-01-13T20:18:46.444Z,70.29
2019-01-13T20:19:53.756Z,70.26
2019-01-13T20:21:01.646Z,70.33
2019-01-13T20:22:09.433Z,70.40
2019-01-13T20:23:17.068Z,70.49
2019-01-13T20:24:24.606Z,70.52
2019-01-13T20:25:32.201Z,70.51
2019-01-13T20:26:39.937Z,70.55
2019-01-13T20:27:47.838Z,70.66
2019-01-13T20:28:56.091Z,70.75
2019-01-13T20:30:04.074Z,70.89
2019-01-13T20:31:12.014Z,71.06
2019-01-13T20:32:19.717Z,71.24
2019-01-13T20:33:27.485Z,71.35
2019-01-13T20:34:35.477Z,71.40
2019-01-13T20:35:43.256Z,71.48
2019-01-13T20:36:50.988Z,71.62
2019-01-13T20:37:59.235Z,71.71
2019-01-13T20:39:09.637Z,71.73
2019-01-13T20:40:18.176Z,71.79
2019-01-13T20:41:25.877Z,71.85
2019-01-13T20:42:33.766Z,71.88
2019-01-13T20:43:41.786Z,72.07
2019-01-13T20:44:49.527Z,72.34
2019-01-13T20:45:57.594Z,72.75
2019-01-13T20:47:05.547Z,72.89
2019-01-13T20:48:13.245Z,73.06
2019-01-13T20:49:21.569Z,73.19
2019-01-13T20:50:29.218Z,73.39
2019-01-13T20:51:37.030Z,73.60
2019-01-13T20:52:45.315Z,73.74
2019-01-13T20:53:53.409Z,73.93
2019-01-13T20:55:01.257Z,74.15
2019-01-13T20:56:09.561Z,74.28
2019-01-13T20:57:17.822Z,74.51
2019-01-13T20:58:25.431Z,74.72
2019-01-13T20:59:32.834Z,74.87
2019-01-13T21:00:40.932Z,75.17
2019-01-13T21:01:48.518Z,75.39
2019-01-13T21:02:56.294Z,75.51
2019-01-13T21:04:04.009Z,75.66
2019-01-13T21:05:11.568Z,75.74
2019-01-13T21:06:19.292Z,75.79
2019-01-13T21:07:26.938Z,75.80
2019-01-13T21:08:35.190Z,75.89
2019-01-13T21:09:43.279Z,75.85
2019-01-13T21:10:50.921Z,75.86
2019-01-13T21:11:58.451Z,75.87
2019-01-13T21:13:06.216Z,75.85
2019-01-13T21:14:13.904Z,75.86
2019-01-13T21:15:26.391Z,75.91
2019-01-13T21:16:33.996Z,75.92
2019-01-13T21:17:41.606Z,75.91
2019-01-13T21:18:49.199Z,75.87
2019-01-13T21:19:56.755Z,75.88
2019-01-13T21:21:04.300Z,75.86
2019-01-13T21:22:11.714Z,75.89
2019-01-13T21:23:21.784Z,75.87
2019-01-13T21:24:29.550Z,75.84
2019-01-13T21:25:37.312Z,75.82
2019-01-13T21:26:45.824Z,75.71
2019-01-13T21:27:55.016Z,75.67
2019-01-13T21:29:02.807Z,75.62
2019-01-13T21:30:18.434Z,75.58
2019-01-13T21:31:26.896Z,75.52
2019-01-13T21:32:34.735Z,75.37
2019-01-13T21:33:42.469Z,75.35
2019-01-13T21:34:50.451Z,75.30
2019-01-13T21:35:58.366Z,75.23
2019-01-13T21:37:05.909Z,75.17
2019-01-13T21:38:13.364Z,75.13
2019-01-13T21:39:21.084Z,75.03
2019-01-13T21:40:28.623Z,74.95
2019-01-13T21:41:36.212Z,74.89
2019-01-13T21:42:44.021Z,74.84
2019-01-13T21:43:52.069Z,74.81
2019-01-13T21:44:59.628Z,74.75
2019-01-13T21:46:07.360Z,74.71
2019-01-13T21:47:14.891Z,74.71
2019-01-13T21:48:22.521Z,74.67
2019-01-13T21:49:30.470Z,74.68
2019-01-13T21:50:38.294Z,74.63
2019-01-13T21:51:46.047Z,74.61
2019-01-13T21:52:54.296Z,74.52
2019-01-13T21:54:02.240Z,74.54
2019-01-13T21:55:12.997Z,74.56
2019-01-13T21:56:20.742Z,74.56
2019-01-13T21:57:29.235Z,74.57
2019-01-13T21:58:36.919Z,74.64
2019-01-13T21:59:44.519Z,74.66
2019-01-13T22:00:52.287Z,74.68
2019-01-13T22:02:00.115Z,74.74
2019-01-13T22:03:07.669Z,74.77
2019-01-13T22:04:15.360Z,74.85
2019-01-13T22:05:23.680Z,74.94
2019-01-13T22:06:31.787Z,75.01
2019-01-13T22:07:39.436Z,75.18
2019-01-13T22:08:47.027Z,75.47
2019-01-13T22:09:54.709Z,75.64
2019-01-13T22:11:02.560Z,75.75
2019-01-13T22:12:10.286Z,75.88
2019-01-13T22:13:17.875Z,76.01
2019-01-13T22:14:25.401Z,76.20
2019-01-13T22:15:32.960Z,76.29
2019-01-13T22:16:40.676Z,76.42
2019-01-13T22:17:48.238Z,76.50
2019-01-13T22:18:55.893Z,76.63
2019-01-13T22:20:04.585Z,76.74
2019-01-13T22:21:12.508Z,76.82
2019-01-13T22:22:20.194Z,76.90
2019-01-13T22:23:27.973Z,76.93
2019-01-13T22:24:35.684Z,76.97
2019-01-13T22:25:43.264Z,76.98
2019-01-13T22:26:50.639Z,76.99
2019-01-13T22:27:58.309Z,76.98
2019-01-13T22:29:06.249Z,76.95
2019-01-13T22:30:17.193Z,76.91
2019-01-13T22:31:25.040Z,76.83
2019-01-13T22:32:32.766Z,76.74
2019-01-13T22:33:40.458Z,76.70
2019-01-13T22:34:48.036Z,76.64
2019-01-13T22:35:55.802Z,76.52
2019-01-13T22:37:03.335Z,76.39
2019-01-13T22:38:10.990Z,76.25
2019-01-13T22:39:18.680Z,76.14
2019-01-13T22:40:26.397Z,76.06
2019-01-13T22:41:34.051Z,75.93
2019-01-13T22:42:41.736Z,75.81
2019-01-13T22:43:49.250Z,75.66
2019-01-13T22:44:56.958Z,75.51
2019-01-13T22:46:04.606Z,75.38
2019-01-13T22:47:12.268Z,75.27
2019-01-13T22:48:20.067Z,75.19
2019-01-13T22:49:27.811Z,75.09
2019-01-13T22:50:35.651Z,75.01
2019-01-13T22:51:43.322Z,74.92
2019-01-13T22:52:51.026Z,74.89
2019-01-13T22:53:58.682Z,74.83
2019-01-13T22:55:08.931Z,74.80
2019-01-13T22:56:16.498Z,74.76
2019-01-13T22:57:24.141Z,74.70
2019-01-13T22:58:31.767Z,74.66
2019-01-13T22:59:39.301Z,74.65
2019-01-13T23:01:07.085Z,74.62
2019-01-13T23:02:14.391Z,74.56
2019-01-13T23:03:22.198Z,74.56
2019-01-13T23:04:30.117Z,74.55
2019-01-13T23:05:37.510Z,74.54
2019-01-13T23:06:45.127Z,74.48
2019-01-13T23:07:52.769Z,74.52
2019-01-13T23:09:00.414Z,74.56
2019-01-13T23:10:09.273Z,74.55
2019-01-13T23:11:16.851Z,74.55
2019-01-13T23:12:24.417Z,74.52
2019-01-13T23:13:32.078Z,74.56
2019-01-13T23:14:39.752Z,74.59
2019-01-13T23:15:47.351Z,74.61
2019-01-13T23:16:54.677Z,74.68
2019-01-13T23:18:02.411Z,74.84
2019-01-13T23:19:10.207Z,74.98
2019-01-13T23:20:18.045Z,75.17
2019-01-13T23:21:25.471Z,75.42
2019-01-13T23:22:33.159Z,75.58
2019-01-13T23:23:43.539Z,75.72
2019-01-13T23:24:51.328Z,75.84
2019-01-13T23:25:59.574Z,75.98
2019-01-13T23:27:07.048Z,76.13
2019-01-13T23:28:14.652Z,76.29
2019-01-13T23:29:22.660Z,76.45
2019-01-13T23:30:30.316Z,76.65
2019-01-13T23:31:38.003Z,76.74
2019-01-13T23:32:45.380Z,76.83
2019-01-13T23:33:53.265Z,76.92
2019-01-13T23:35:01.029Z,77.03
2019-01-13T23:36:08.608Z,77.11
2019-01-13T23:37:16.128Z,77.24
2019-01-13T23:38:23.563Z,77.35
2019-01-13T23:39:31.450Z,77.44
2019-01-13T23:40:40.776Z,77.57
2019-01-13T23:41:48.378Z,77.64
2019-01-13T23:42:55.939Z,77.70
2019-01-13T23:44:03.892Z,77.78
2019-01-13T23:45:11.798Z,77.85
2019-01-13T23:46:19.316Z,77.93
2019-01-13T23:47:26.936Z,78.00
2019-01-13T23:48:34.947Z,78.04
2019-01-13T23:49:42.955Z,78.13
2019-01-13T23:50:51.795Z,78.21
2019-01-13T23:51:59.577Z,78.22
2019-01-13T23:53:07.250Z,78.28
2019-01-13T23:54:15.193Z,78.33
2019-01-13T23:55:22.855Z,78.36
2019-01-13T23:56:30.687Z,78.41
2019-01-13T23:57:38.084Z,78.46
2019-01-13T23:58:46.078Z,78.56
2019-01-13T23:59:53.518Z,78.61
